Terminal Aerodrome Forecast
Issued by NWS Sioux Falls, SD

Home | Current Version | Previous Version | Graphics & Text | Print | Product List | Glossary On
Versions: 1 2 3 4 5 6 7 8 9 10 11 12 13 14 15
165
FTUS43 KFSD 182336
TAFHON
TAF
KHON 182336Z 1900/1924 17009KT P6SM FEW200
     FM190900 15013KT P6SM BKN025
     FM191100 15014KT 4SM BR BKN015
     FM191300 15016KT P6SM BKN009
     FM191600 15017G25KT P6SM BKN100=

USA.gov is the U.S. government's official web portal to all federal, state and local government web resources and services.